Hub


Voltar

 INFORMAÇÕES METEOROLÓGICAS

METAR FOR SOCA


ADDS - METARS form results

(0339 UTC 24 March 2019)
Data provider http://aviationweather.gov/metar/data/
 
METAR text: SOCA 240330Z AUTO 03005KT 9999 FEW022 SCT046 26/23 Q1014 TEMPO SHRA FEW012TCU
Conditions at: SOCA (CAYENNE/ROCHAMBE, GY) observed 0330 UTC 24 March 2019
Temperature: 26.0°C (79°F)
Dewpoint: 23.0°C (73°F) [RH = 84%]
Pressure (altimeter): 29.94 inches Hg (1014.0 mb)
Winds: from the NNE (30 degrees) at 6 MPH (5 knots; 2.6 m/s)
Visibility: 6 or more miles (10+ km)
Ceiling: at least 12,000 feet AGL
Clouds: few clouds at 2200 feet AGL
scattered clouds at 4600 feet AGL
Weather: no significant weather observed at this time

METAR text: SOCA 240300Z AUTO 05007KT 9999 FEW023 BKN043 26/23 Q1014 TEMPO SHRA FEW012TCU
Conditions at: SOCA (CAYENNE/ROCHAMBE, GY) observed 0300 UTC 24 March 2019
Temperature: 26.0°C (79°F)
Dewpoint: 23.0°C (73°F) [RH = 84%]
Pressure (altimeter): 29.94 inches Hg (1014.0 mb)
Winds: from the NE (50 degrees) at 8 MPH (7 knots; 3.6 m/s)
Visibility: 6 or more miles (10+ km)
Ceiling: 4300 feet AGL
Clouds: few clouds at 2300 feet AGL
broken clouds at 4300 feet AGL
Weather: no significant weather observed at this time

Forecast for: SOCA (CAYENNE/ROCHAMBE, GY)
Text: TAF SOCA 232200Z 2400/2424 VRB02KT 9999 SCT020 SCT050
Forecast period: 0000 to 1300 UTC 24 March 2019
Forecast type: FROM: standard forecast or significant change
Winds: variable direction winds at 2 MPH (2 knots; 1.0 m/s)
Visibility: 6 or more miles 10+ km)
Ceiling: at least 12,000 feet AGL
Clouds: scattered clouds at 2000 feet AGL
scattered clouds at 5000 feet AGL
Weather: no significant weather forecast for this period
Text: FM241300 07012KT 9999 SCT028 SCT060
Forecast period: 1300 UTC 24 March 2019 to 0000 UTC 25 March 2019
Forecast type: FROM: standard forecast or significant change
Winds: from the ENE (70 degrees) at 14 MPH (12 knots; 6.2 m/s)
Visibility: 6 or more miles 10+ km)
Ceiling: at least 12,000 feet AGL
Clouds: scattered clouds at 2800 feet AGL
scattered clouds at 6000 feet AGL
Weather: no significant weather forecast for this period
Text: PROB30
Forecast period: 0000 UTC 24 March 2019 to 0000 UTC 25 March 2019
Forecast type: TEMPORARY: The following changes expected for less than half the time period
Visibility: missing
Ceiling: at least 12,000 feet AGL
Clouds: few clouds at 1200 feet AGL
Weather: SHRA  (rain showers)


 MAPA DO AEROPORTO


 INFORMAÇÕES DA PISTA

Pista 08 Tamanho da pista 10486 ft Largura da pista 148 ft
Elevação da pista 18 ft Ranhura da pista 0 ft Proa da pista 65
Pista 26 Tamanho da pista 10486 ft Largura da pista 148 ft
Elevação da pista 25 ft Ranhura da pista 0 ft Proa da pista 245

 FREQUÊNCIAS DO AEROPORTO

Tipo APP Nome APP Frequência 119.9 MHZ
Tipo ATIS Nome ATIS Frequência 132.2 MHZ
Tipo TWR Nome TWR Frequência 118.1 MHZ

 AUXÍLIOS DE NAVEGAÇÃO PRÓXIMOS AO AEROPORTO

Tipo VOR-DME Nome Cayenne Frequência 115950 KHZ
Tipo NDB Nome Cayenne Frequência 327 KHZ